Share

Aledo, IL (61231)

Red storm north (KILALEXI2) Elev 682 ft | 41.07 °N, 90.55 °W | Change Station

Current weather conditions updated 12 minutes ago

Mostly Cloudy
Mostly Cloudy
45.9 °F
Feels Like 41 °F
N
8.9
Wind Variable Wind from SSE
Sunrise 6:20 AM
Sunset 7:45 PM
Moon Waning Gibbous

Today is forecast to be nearly the same temperature as yesterday.

Pressure 30.02 in
Visibility 10.0 miles
Clouds Mostly Cloudy 10000 ft
Windchill 41 °F
Dew Point 34 °F
Humidity 64%
Rainfall 0.00 in
Snow Depth Not available.
UV 0 out of 16
Pollen 10.10 out of 12
Air Quality Not available.
Flu Activity Local Activity
METAR KMLI 170452Z AUTO 16013G19KT 10SM BKN100 08/M02 A3001 RMK AO2 SLP166 T00831022

More Conditions Fewer Conditions

Pressure 30.02 in
Visibility 10.0 miles
Clouds Mostly Cloudy 10000 ft
Windchill 41 °F
Dew Point 34 °F
Humidity 64%
Rainfall 0.00 in
Snow Depth Not available.
UV 0 out of 16
Pollen 10.10 out of 12
Air Quality Not available.
Flu Activity Local Activity
METAR KMLI 170452Z AUTO 16013G19KT 10SM BKN100 08/M02 A3001 RMK AO2 SLP166 T00831022

More Conditions Fewer Conditions

10-Day Forecast

Almanac

Astronomy

Apr. 17, 2014 Rise Set
Actual Time 6:20 AM CDT 7:45 PM CDT
Civil Twilight 5:51 AM CDT 8:14 PM CDT
Nautical Twilight 5:17 AM CDT 8:48 PM CDT
Astronomical Twilight 4:40 AM CDT 9:25 PM CDT
Moon 10:32 PM CDT 7:51 AM CDT
Length of Visible Light 14h 22m
Length of Day
13h 24m
Tomorrow will be 2m 36s longer.
Waning Gibbous, 96% of the Moon is Illuminated
Today
Waning Gibbous
Apr 22
Last Quarter
Apr 29
New
May 6
First Quarter
May 14
Full

Today's Extremes

State Highs State Lows

Community

  • Sunset over the Bay
    Sunset over the Bay
  • symphony in blue....
    symphony in blue....
  • Dawn Surprise
    Dawn Surprise
  • Yucca delight
    Yucca delight
  • Sunset inside of the Ocean
    Sunset inside of the Ocean

WunderPhotos

Upload Photos

1,701,871 photos uploaded!

WunderBlogs® & News

Nearby

Snow Depth

Station Depth Elevation
No new snow has been reported.

Coastal Water Temperatures

Place Temperature
No Stations Reporting

Earthquake Activity

City Distance Mag. Time & Date
No recent earthquake activity has been reported nearby.
Minimum magnitude displayed is 2.5.

Nearby Weather Stations

Station Location Temp. Windchill Dew Point Humidity Wind Precip. Elev Updated Type
Aledo, IL 47.3 °F 44 °F 30 °F 50% SE  at  6.9 mph 0.00 in / hr 722 ft 10:56 PM CDT Rapid Fire
Red storm north, Alexis, IL 45.9 °F 41 °F 34 °F 64% SSE  at  8.9 mph - / hr 682 ft 12:40 AM CDT Normal
West Central Davenport, Davenport, IA 48.3 °F 47 °F 8 °F 19% SSE  at  3.4 mph 0.00 in / hr 732 ft 12:52 AM CDT Rapid Fire
CPS, Biggsville, IL 45.8 °F 41 °F 31 °F 57% ESE  at  10.0 mph 0.00 in / hr 686 ft 12:39 AM CDT Normal

Show More Stations Show Fewer Stations

What do you think?

We're not finished. Please let us know what you like, what you don't like, and what you are still missing.